createdAt,value
2024-04-30T00:00:56.554Z,96362.03
2024-04-30T00:03:24.035Z,96368.53
2024-04-30T00:05:50.947Z,96364.22
2024-04-30T00:08:17.910Z,96359.72
2024-04-30T00:10:44.929Z,96350.03
2024-04-30T00:13:15.917Z,96354.13
2024-04-30T00:15:48.690Z,96365.66
2024-04-30T00:18:16.802Z,96359.16
2024-04-30T00:20:49.571Z,96350.94
2024-04-30T00:23:17.086Z,96346.13
2024-04-30T00:25:44.074Z,96348.53
2024-04-30T00:28:20.642Z,96357.16
2024-04-30T00:30:47.628Z,96349.63
2024-04-30T00:33:17.558Z,96346.00
2024-04-30T00:35:45.060Z,96342.78
2024-04-30T00:38:12.982Z,96346.34
2024-04-30T00:40:42.936Z,96347.06
2024-04-30T00:43:10.167Z,96343.63
2024-04-30T00:45:43.955Z,96344.22
2024-04-30T00:48:14.287Z,96356.41
2024-04-30T00:50:41.537Z,96343.00
2024-04-30T00:53:12.366Z,96337.38
2024-04-30T00:55:40.080Z,96337.13
2024-04-30T00:58:07.712Z,96344.28
2024-04-30T01:00:37.982Z,96342.28
2024-04-30T01:03:08.650Z,96336.97
2024-04-30T01:05:37.624Z,96331.69
2024-04-30T01:08:04.689Z,96328.31
2024-04-30T01:10:31.774Z,96331.94
2024-04-30T01:13:10.107Z,96330.44
2024-04-30T01:15:37.282Z,96331.72
2024-04-30T01:18:07.348Z,96323.13
2024-04-30T01:20:35.676Z,96314.63
2024-04-30T01:23:09.830Z,96315.00
2024-04-30T01:25:36.478Z,96323.34
2024-04-30T01:28:03.386Z,96323.44
2024-04-30T01:30:30.404Z,96328.38
2024-04-30T01:32:57.179Z,96332.19
2024-04-30T01:35:25.744Z,96334.88
2024-04-30T01:37:52.977Z,96323.22
2024-04-30T01:40:20.552Z,96322.09
2024-04-30T01:42:49.039Z,96311.78
2024-04-30T01:45:15.568Z,96320.53
2024-04-30T01:47:42.236Z,96324.09
2024-04-30T01:50:16.365Z,96316.09
2024-04-30T01:52:42.971Z,96311.78
2024-04-30T01:55:10.450Z,96301.22
2024-04-30T01:57:40.028Z,96310.97
2024-04-30T02:00:06.876Z,96302.34
2024-04-30T02:02:36.673Z,96295.84
2024-04-30T02:05:10.898Z,96297.03
2024-04-30T02:07:43.444Z,96296.84
2024-04-30T02:10:10.150Z,96295.69
2024-04-30T02:12:36.714Z,96294.22
2024-04-30T02:15:03.309Z,96295.94
2024-04-30T02:17:30.055Z,96298.88
2024-04-30T02:19:56.664Z,96299.78
2024-04-30T02:22:23.779Z,96288.63
2024-04-30T02:24:50.773Z,96277.00
2024-04-30T02:27:20.692Z,96273.66
2024-04-30T02:29:47.638Z,96284.44
2024-04-30T02:32:14.726Z,96272.78
2024-04-30T02:34:42.776Z,96281.38
2024-04-30T02:37:15.855Z,96280.81
2024-04-30T02:39:42.830Z,96267.09
2024-04-30T02:42:10.065Z,96262.31
2024-04-30T02:44:37.272Z,96257.09
2024-04-30T02:47:13.568Z,96244.16
2024-04-30T02:49:46.526Z,96239.72
2024-04-30T02:52:16.929Z,96244.03
2024-04-30T02:54:44.733Z,96247.25
2024-04-30T02:57:22.594Z,96239.72
2024-04-30T02:59:50.035Z,96234.72
2024-04-30T03:02:17.970Z,96233.22
2024-04-30T03:04:47.465Z,96231.84
2024-04-30T03:07:26.438Z,96237.75
2024-04-30T03:09:53.598Z,96240.00
2024-04-30T03:12:20.785Z,96223.94
2024-04-30T03:14:47.945Z,96218.94
2024-04-30T03:17:15.832Z,96225.06
2024-04-30T03:19:42.928Z,96217.25
2024-04-30T03:22:12.670Z,96217.25
2024-04-30T03:24:42.198Z,96227.22
2024-04-30T03:27:09.571Z,96221.69
2024-04-30T03:29:36.510Z,96213.09
2024-04-30T03:32:03.484Z,96218.72
2024-04-30T03:34:30.496Z,96221.91
2024-04-30T03:36:59.697Z,96235.69
2024-04-30T03:39:26.620Z,96232.25
2024-04-30T03:41:58.193Z,96221.03
2024-04-30T03:44:25.000Z,96212.03
2024-04-30T03:46:51.918Z,96201.44
2024-04-30T03:49:25.276Z,96188.97
2024-04-30T03:51:52.207Z,96192.88
2024-04-30T03:57:08.376Z,96196.41
2024-04-30T03:59:41.064Z,96187.97
2024-04-30T04:02:11.682Z,96191.19
2024-04-30T04:04:40.778Z,96186.22
2024-04-30T04:07:07.461Z,96189.47
2024-04-30T04:09:34.087Z,96184.09
2024-04-30T04:12:00.788Z,96195.88
2024-04-30T04:14:27.361Z,96195.88
2024-04-30T04:16:53.902Z,96194.41
2024-04-30T04:19:20.478Z,96193.91
2024-04-30T04:21:47.047Z,96192.69
2024-04-30T04:24:13.632Z,96204.00
2024-04-30T04:26:43.356Z,96207.19
2024-04-30T04:29:09.916Z,96205.75
2024-04-30T04:31:43.358Z,96211.56
2024-04-30T04:34:10.356Z,96212.44
2024-04-30T04:36:47.184Z,96214.16
2024-04-30T04:39:19.552Z,96208.44
2024-04-30T04:42:01.128Z,96201.47
2024-04-30T04:44:31.870Z,96209.06
2024-04-30T04:46:58.856Z,96201.22
2024-04-30T04:49:25.868Z,96206.91
2024-04-30T04:51:57.383Z,96194.13
2024-04-30T04:54:24.519Z,96199.28
2024-04-30T04:56:51.982Z,96202.25
2024-04-30T04:59:21.542Z,96198.34
2024-04-30T05:01:48.528Z,96194.13
2024-04-30T05:04:15.708Z,96198.09
2024-04-30T05:06:42.369Z,96204.34
2024-04-30T05:09:12.226Z,96205.22
2024-04-30T05:11:42.088Z,96200.91
2024-04-30T05:14:08.722Z,96211.38
2024-04-30T05:16:36.410Z,96212.94
2024-04-30T05:19:03.144Z,96225.38
2024-04-30T05:21:29.766Z,96218.91
2024-04-30T05:24:01.219Z,96218.28
2024-04-30T05:26:28.729Z,96219.03
2024-04-30T05:28:55.489Z,96221.63
2024-04-30T05:31:22.126Z,96211.19
2024-04-30T05:33:49.384Z,96212.19
2024-04-30T05:36:16.569Z,96210.94
2024-04-30T05:38:43.264Z,96201.22
2024-04-30T05:41:09.865Z,96217.81
2024-04-30T05:43:39.622Z,96222.81
2024-04-30T05:46:12.426Z,96216.25
2024-04-30T05:48:39.757Z,96209.53
2024-04-30T05:51:07.680Z,96202.28
2024-04-30T05:53:37.228Z,96209.94
2024-04-30T05:56:04.078Z,96202.72
2024-04-30T05:58:34.276Z,96199.88
2024-04-30T06:01:11.505Z,96195.91
2024-04-30T06:03:39.338Z,96197.19
2024-04-30T06:06:08.907Z,96190.22
2024-04-30T06:08:38.797Z,96197.59
2024-04-30T06:11:07.431Z,96192.59
2024-04-30T06:13:35.727Z,96202.72
2024-04-30T06:16:05.659Z,96204.31
2024-04-30T06:18:35.387Z,96200.94
2024-04-30T06:21:11.755Z,96198.91
2024-04-30T06:23:41.732Z,96205.03
2024-04-30T06:26:09.592Z,96204.81
2024-04-30T06:28:42.747Z,96193.84
2024-04-30T06:31:09.427Z,96187.19
2024-04-30T06:33:36.589Z,96188.94
2024-04-30T06:36:03.256Z,96203.00
2024-04-30T06:38:35.861Z,96199.84
2024-04-30T06:41:02.672Z,96192.88
2024-04-30T06:43:29.388Z,96192.94
2024-04-30T06:45:56.217Z,96198.31
2024-04-30T06:48:28.478Z,96194.63
2024-04-30T06:50:58.390Z,96198.81
2024-04-30T06:53:25.435Z,96201.53
2024-04-30T06:55:55.292Z,96210.44
2024-04-30T06:58:24.001Z,96201.22
2024-04-30T07:00:50.676Z,96201.22
2024-04-30T07:03:25.010Z,96202.38
2024-04-30T07:05:54.212Z,96199.56
2024-04-30T07:08:23.704Z,96197.63
2024-04-30T07:10:51.747Z,96197.22
2024-04-30T07:13:23.635Z,96198.63
2024-04-30T07:15:57.256Z,96207.03
2024-04-30T07:18:24.738Z,96187.50
2024-04-30T07:21:00.437Z,96182.19
2024-04-30T07:23:27.592Z,96185.06
2024-04-30T07:25:57.937Z,96176.53
2024-04-30T07:28:25.162Z,96172.28
2024-04-30T07:30:54.665Z,96173.69
2024-04-30T07:33:26.328Z,96174.84
2024-04-30T07:35:56.545Z,96171.91
2024-04-30T07:38:38.148Z,96171.97
2024-04-30T07:41:11.467Z,96176.72
2024-04-30T07:43:38.781Z,96183.88
2024-04-30T07:46:09.556Z,96180.03
2024-04-30T07:48:39.967Z,96181.94
2024-04-30T07:51:09.429Z,96179.53
2024-04-30T07:53:37.253Z,96178.19
2024-04-30T07:56:04.180Z,96187.44
2024-04-30T07:58:34.174Z,96184.16
2024-04-30T08:01:07.075Z,96186.03
2024-04-30T08:03:34.616Z,96185.59
2024-04-30T08:06:21.112Z,96186.72
2024-04-30T08:08:50.344Z,96186.72
2024-04-30T08:11:20.537Z,96188.38
2024-04-30T08:13:59.054Z,96178.94
2024-04-30T08:19:07.660Z,96169.44
2024-04-30T08:21:37.538Z,96163.56
2024-04-30T08:24:05.500Z,96160.94
2024-04-30T08:26:36.340Z,96149.00
2024-04-30T08:29:02.964Z,96147.41
2024-04-30T08:31:30.165Z,96139.44
2024-04-30T08:34:02.817Z,96133.34
2024-04-30T08:36:31.257Z,96142.06
2024-04-30T08:39:02.937Z,96133.94
2024-04-30T08:41:32.919Z,96136.28
2024-04-30T08:44:00.299Z,96129.56
2024-04-30T08:46:33.891Z,96127.38
2024-04-30T08:49:17.754Z,96129.72
2024-04-30T08:51:51.274Z,96133.50
2024-04-30T08:54:20.793Z,96120.19
2024-04-30T08:56:48.819Z,96130.81
2024-04-30T08:59:16.108Z,96120.72
2024-04-30T09:01:46.696Z,96126.44
2024-04-30T09:04:14.021Z,96123.47
2024-04-30T09:06:46.576Z,96134.91
2024-04-30T09:09:17.679Z,96123.56
2024-04-30T09:11:44.702Z,96125.25
2024-04-30T09:14:11.773Z,96123.38
2024-04-30T09:16:40.412Z,96119.19
2024-04-30T09:19:09.416Z,96123.66
2024-04-30T09:21:36.418Z,96122.50
2024-04-30T09:24:13.505Z,96128.41
2024-04-30T09:26:41.540Z,96136.81
2024-04-30T09:29:09.752Z,96127.69
2024-04-30T09:31:37.566Z,96118.25
2024-04-30T09:34:04.788Z,96120.19
2024-04-30T09:36:36.430Z,96129.28
2024-04-30T09:39:06.450Z,96120.31
2024-04-30T09:41:39.847Z,96119.16
2024-04-30T09:44:10.066Z,96111.16
2024-04-30T09:46:39.717Z,96097.69
2024-04-30T09:49:08.699Z,96094.75
2024-04-30T09:51:36.737Z,96093.56
2024-04-30T09:54:04.206Z,96099.81
2024-04-30T09:56:31.213Z,96097.59
2024-04-30T09:58:58.637Z,96098.19
2024-04-30T10:01:25.847Z,96099.81
2024-04-30T10:03:52.904Z,96095.66
2024-04-30T10:06:22.890Z,96077.44
2024-04-30T10:08:50.170Z,96087.38
2024-04-30T10:11:17.215Z,96077.47
2024-04-30T10:13:43.930Z,96079.44
2024-04-30T10:16:10.639Z,96076.19
2024-04-30T10:18:37.236Z,96089.22
2024-04-30T10:21:03.993Z,96078.84
2024-04-30T10:23:33.798Z,96080.25
2024-04-30T10:26:00.402Z,96078.63
2024-04-30T10:28:27.019Z,96078.22
2024-04-30T10:31:13.079Z,96070.16
2024-04-30T10:33:40.211Z,96069.31
2024-04-30T10:36:07.172Z,96068.88
2024-04-30T10:38:33.804Z,96065.09
2024-04-30T10:41:00.517Z,96063.75
2024-04-30T10:43:33.112Z,96057.22
2024-04-30T10:45:59.702Z,96053.94
2024-04-30T10:48:28.557Z,96045.66
2024-04-30T10:50:55.207Z,96046.22
2024-04-30T10:53:21.771Z,96043.09
2024-04-30T10:55:51.569Z,96034.13
2024-04-30T10:58:18.299Z,96032.63
2024-04-30T11:00:45.082Z,96026.13
2024-04-30T11:03:11.680Z,96021.38
2024-04-30T11:05:38.595Z,96019.44
2024-04-30T11:08:05.494Z,96002.84
2024-04-30T11:10:33.471Z,96001.72
2024-04-30T11:13:00.722Z,95992.41
2024-04-30T11:15:34.220Z,96003.88
2024-04-30T11:18:08.053Z,95992.13
2024-04-30T11:20:35.170Z,95994.16
2024-04-30T11:23:02.732Z,95996.41
2024-04-30T11:25:32.238Z,96002.31
2024-04-30T11:28:03.976Z,96001.97
2024-04-30T11:30:31.236Z,95998.47
2024-04-30T11:32:58.394Z,96014.25
2024-04-30T11:35:25.532Z,95995.41
2024-04-30T11:37:52.856Z,95994.03
2024-04-30T11:40:30.997Z,95978.16
2024-04-30T11:42:57.998Z,95987.91
2024-04-30T11:45:25.285Z,95990.41
2024-04-30T11:47:53.309Z,95973.84
2024-04-30T11:50:20.644Z,95978.88
2024-04-30T11:52:47.775Z,95979.09
2024-04-30T11:55:18.651Z,95984.69
2024-04-30T11:57:45.844Z,95985.81
2024-04-30T12:00:13.019Z,95968.13
2024-04-30T12:02:40.153Z,95954.25
2024-04-30T12:05:07.539Z,95962.88
2024-04-30T12:07:36.469Z,95955.19
2024-04-30T12:10:03.518Z,95957.47
2024-04-30T12:12:31.189Z,95946.25
2024-04-30T12:14:58.237Z,95942.38
2024-04-30T12:17:26.516Z,95935.38
2024-04-30T12:19:54.059Z,95939.88
2024-04-30T12:22:21.138Z,95944.34
2024-04-30T12:24:48.785Z,95946.88
2024-04-30T12:27:21.832Z,95944.19
2024-04-30T12:29:51.410Z,95932.22
2024-04-30T12:32:18.006Z,95922.03
2024-04-30T12:34:48.015Z,95923.16
2024-04-30T12:37:14.906Z,95918.53
2024-04-30T12:39:43.691Z,95915.53
2024-04-30T12:42:10.478Z,95908.47
2024-04-30T12:44:37.066Z,95912.47
2024-04-30T12:47:03.660Z,95921.03
2024-04-30T12:49:32.987Z,95930.97
2024-04-30T12:52:13.112Z,95932.97
2024-04-30T12:54:40.155Z,95935.19
2024-04-30T12:57:07.299Z,95933.97
2024-04-30T12:59:38.175Z,95937.78
2024-04-30T13:02:05.446Z,95932.81
2024-04-30T13:04:32.210Z,95943.88
2024-04-30T13:06:59.076Z,95939.03
2024-04-30T13:09:25.711Z,95927.50
2024-04-30T13:11:52.288Z,95920.91
2024-04-30T13:14:19.073Z,95930.78
2024-04-30T13:16:45.731Z,95925.72
2024-04-30T13:19:15.853Z,95924.53
2024-04-30T13:21:42.816Z,95921.06
2024-04-30T13:24:09.698Z,95914.41
2024-04-30T13:26:42.273Z,95913.66
2024-04-30T13:29:12.451Z,95906.72
2024-04-30T13:31:39.540Z,95908.03
2024-04-30T13:34:06.674Z,95904.44
2024-04-30T13:36:33.699Z,95891.06
2024-04-30T13:39:04.329Z,95892.94
2024-04-30T13:41:34.889Z,95887.78
2024-04-30T13:44:02.628Z,95879.44
2024-04-30T13:46:39.836Z,95876.13
2024-04-30T13:49:06.989Z,95869.50
2024-04-30T13:51:34.684Z,95859.47
2024-04-30T13:54:05.022Z,95858.03
2024-04-30T13:56:32.093Z,95857.22
2024-04-30T13:59:08.235Z,95857.78
2024-04-30T14:01:36.273Z,95852.69
2024-04-30T14:04:05.208Z,95848.03
2024-04-30T14:06:32.312Z,95856.22
2024-04-30T14:08:59.344Z,95852.63
2024-04-30T14:11:29.151Z,95851.81
2024-04-30T14:13:55.836Z,95856.25
2024-04-30T14:16:22.575Z,95856.16
2024-04-30T14:18:49.420Z,95852.03
2024-04-30T14:21:16.020Z,95839.38
2024-04-30T14:23:42.643Z,95829.53
2024-04-30T14:26:09.565Z,95832.59
2024-04-30T14:28:36.527Z,95833.56
2024-04-30T14:31:03.231Z,95821.41
2024-04-30T14:33:32.995Z,95823.56
2024-04-30T14:36:05.618Z,95826.00
2024-04-30T14:38:32.277Z,95829.81
2024-04-30T14:40:58.906Z,95823.97
2024-04-30T14:43:28.612Z,95822.16
2024-04-30T14:45:55.518Z,95815.25
2024-04-30T14:48:22.186Z,95816.25
2024-04-30T14:50:51.891Z,95811.50
2024-04-30T14:53:18.783Z,95811.88
2024-04-30T14:55:51.494Z,95804.72
2024-04-30T14:58:18.084Z,95814.06
2024-04-30T15:00:44.803Z,95813.13
2024-04-30T15:03:12.076Z,95816.47
2024-04-30T15:05:39.101Z,95816.47
2024-04-30T15:08:05.734Z,95795.56
2024-04-30T15:10:33.556Z,95793.34
2024-04-30T15:13:00.662Z,95804.19
2024-04-30T15:15:33.716Z,95794.44
2024-04-30T15:18:00.953Z,95799.00
2024-04-30T15:20:28.142Z,95803.53
2024-04-30T15:22:55.099Z,95813.88
2024-04-30T15:25:22.629Z,95806.59
2024-04-30T15:27:49.854Z,95788.22
2024-04-30T15:30:20.087Z,95780.19
2024-04-30T15:32:50.281Z,95779.69
2024-04-30T15:35:17.387Z,95781.75
2024-04-30T15:37:46.584Z,95784.91
2024-04-30T15:40:13.684Z,95776.84
2024-04-30T15:42:40.684Z,95778.25
2024-04-30T15:45:15.888Z,95782.66
2024-04-30T15:47:44.057Z,95777.38
2024-04-30T15:50:11.047Z,95787.47
2024-04-30T15:52:38.236Z,95779.75
2024-04-30T15:55:12.148Z,95782.03
2024-04-30T15:57:39.389Z,95771.13
2024-04-30T16:00:07.446Z,95771.63
2024-04-30T16:02:34.484Z,95763.91
2024-04-30T16:05:01.816Z,95771.22
2024-04-30T16:07:31.147Z,95768.69
2024-04-30T16:09:58.214Z,95760.47
2024-04-30T16:12:25.370Z,95761.97
2024-04-30T16:14:53.656Z,95766.16
2024-04-30T16:17:20.325Z,95762.25
2024-04-30T16:19:47.219Z,95759.06
2024-04-30T16:22:13.909Z,95760.13
2024-04-30T16:24:44.188Z,95755.41
2024-04-30T16:27:10.790Z,95743.50
2024-04-30T16:29:37.421Z,95743.94
2024-04-30T16:32:09.520Z,95739.78
2024-04-30T16:34:36.755Z,95733.78
2024-04-30T16:37:04.017Z,95739.81
2024-04-30T16:39:31.710Z,95733.66
2024-04-30T16:41:58.311Z,95749.94
2024-04-30T16:44:33.105Z,95739.47
2024-04-30T16:47:10.227Z,95743.53
2024-04-30T16:49:36.881Z,95752.50
2024-04-30T16:52:03.542Z,95749.44
2024-04-30T16:54:32.910Z,95741.81
2024-04-30T16:56:59.839Z,95743.06
2024-04-30T16:59:32.452Z,95735.97
2024-04-30T17:01:59.104Z,95734.75
2024-04-30T17:04:25.836Z,95742.03
2024-04-30T17:06:52.813Z,95733.31
2024-04-30T17:09:19.865Z,95735.84
2024-04-30T17:11:46.485Z,95733.72
2024-04-30T17:14:13.057Z,95731.22
2024-04-30T17:16:40.262Z,95728.56
2024-04-30T17:19:09.528Z,95733.41
2024-04-30T17:21:39.286Z,95739.22
2024-04-30T17:24:09.053Z,95727.63
2024-04-30T17:26:35.981Z,95729.53
2024-04-30T17:29:02.931Z,95729.31
2024-04-30T17:31:30.083Z,95735.72
2024-04-30T17:33:57.500Z,95746.34
2024-04-30T17:36:24.568Z,95739.56
2024-04-30T17:38:51.555Z,95731.22
2024-04-30T17:41:18.949Z,95738.66
2024-04-30T17:43:46.054Z,95739.97
2024-04-30T17:46:13.020Z,95737.44
2024-04-30T17:48:40.103Z,95729.34
2024-04-30T17:51:07.108Z,95731.44
2024-04-30T17:53:34.120Z,95740.22
2024-04-30T17:56:01.078Z,95738.22
2024-04-30T17:58:28.100Z,95728.44
2024-04-30T18:00:55.264Z,95730.91
2024-04-30T18:03:31.349Z,95728.84
2024-04-30T18:05:58.323Z,95713.63
2024-04-30T18:08:25.803Z,95719.00
2024-04-30T18:10:54.435Z,95710.19
2024-04-30T18:13:21.898Z,95709.59
2024-04-30T18:15:48.984Z,95707.16
2024-04-30T18:18:16.273Z,95711.97
2024-04-30T18:20:43.289Z,95711.03
2024-04-30T18:23:12.483Z,95704.53
2024-04-30T18:25:39.711Z,95704.97
2024-04-30T18:28:06.658Z,95695.50
2024-04-30T18:30:33.728Z,95693.28
2024-04-30T18:33:00.804Z,95690.53
2024-04-30T18:35:27.797Z,95696.81
2024-04-30T18:37:54.755Z,95708.47
2024-04-30T18:40:27.708Z,95703.69
2024-04-30T18:42:54.548Z,95709.09
2024-04-30T18:45:21.117Z,95711.59
2024-04-30T18:47:47.819Z,95721.41
2024-04-30T18:50:17.475Z,95715.53
2024-04-30T18:52:44.502Z,95714.72
2024-04-30T18:55:11.069Z,95711.13
2024-04-30T18:57:37.652Z,95716.28
2024-04-30T19:00:04.280Z,95722.63
2024-04-30T19:02:30.890Z,95721.19
2024-04-30T19:04:57.537Z,95713.38
2024-04-30T19:07:24.131Z,95719.88
2024-04-30T19:09:50.911Z,95716.22
2024-04-30T19:12:17.792Z,95716.25
2024-04-30T19:14:44.492Z,95711.78
2024-04-30T19:17:11.100Z,95707.81
2024-04-30T19:19:37.802Z,95709.09
2024-04-30T19:22:04.618Z,95702.69
2024-04-30T19:24:31.262Z,95713.56
2024-04-30T19:26:57.865Z,95709.41
2024-04-30T19:29:24.416Z,95713.22
2024-04-30T19:31:50.983Z,95721.69
2024-04-30T19:34:17.656Z,95728.84
2024-04-30T19:36:44.369Z,95718.56
2024-04-30T19:39:11.007Z,95718.25
2024-04-30T19:41:37.987Z,95721.97
2024-04-30T19:44:04.927Z,95725.19
2024-04-30T19:46:31.882Z,95719.97
2024-04-30T19:48:58.919Z,95723.16
2024-04-30T19:51:25.998Z,95723.59
2024-04-30T19:53:53.104Z,95733.84
2024-04-30T19:56:20.220Z,95723.50
2024-04-30T19:58:50.055Z,95721.00
2024-04-30T20:01:17.792Z,95721.53
2024-04-30T20:03:44.513Z,95716.19
2024-04-30T20:06:11.040Z,95722.31
2024-04-30T20:08:37.574Z,95735.75
2024-04-30T20:11:04.480Z,95722.47
2024-04-30T20:13:31.339Z,95712.03
2024-04-30T20:15:57.938Z,95727.25
2024-04-30T20:18:24.556Z,95726.06
2024-04-30T20:20:51.194Z,95722.31
2024-04-30T20:23:20.702Z,95722.50
2024-04-30T20:25:47.320Z,95711.19
2024-04-30T20:28:13.996Z,95713.41
2024-04-30T20:30:41.636Z,95723.22
2024-04-30T20:33:12.179Z,95721.13
2024-04-30T20:35:41.909Z,95707.56
2024-04-30T20:38:11.584Z,95706.50
2024-04-30T20:40:38.154Z,95704.06
2024-04-30T20:43:07.745Z,95708.75
2024-04-30T20:45:37.462Z,95700.00
2024-04-30T20:48:07.140Z,95690.19
2024-04-30T20:50:33.807Z,95681.50
2024-04-30T20:53:00.439Z,95677.75
2024-04-30T20:55:26.965Z,95675.56
2024-04-30T20:57:53.537Z,95679.78
2024-04-30T21:00:20.555Z,95684.84
2024-04-30T21:02:47.853Z,95674.47
2024-04-30T21:05:15.914Z,95673.09
2024-04-30T21:07:42.616Z,95672.28
2024-04-30T21:10:09.515Z,95660.53
2024-04-30T21:12:36.617Z,95666.22
2024-04-30T21:15:03.236Z,95666.78
2024-04-30T21:17:29.894Z,95661.72
2024-04-30T21:20:01.054Z,95666.91
2024-04-30T21:22:27.675Z,95668.03
2024-04-30T21:24:54.485Z,95664.72
2024-04-30T21:27:22.419Z,95666.50
2024-04-30T21:29:49.018Z,95664.38
2024-04-30T21:32:15.577Z,95665.13
2024-04-30T21:34:44.163Z,95668.22
2024-04-30T21:37:10.818Z,95666.44
2024-04-30T21:39:37.513Z,95661.81
2024-04-30T21:42:04.292Z,95671.25
2024-04-30T21:44:30.901Z,95660.53
2024-04-30T21:46:57.606Z,95662.09
2024-04-30T21:49:25.074Z,95659.25
2024-04-30T21:51:51.809Z,95658.59
2024-04-30T21:54:18.395Z,95664.56
2024-04-30T21:56:45.084Z,95652.94
2024-04-30T21:59:11.644Z,95651.09
2024-04-30T22:01:38.329Z,95656.53
2024-04-30T22:04:05.530Z,95657.06
2024-04-30T22:06:32.782Z,95653.31
2024-04-30T22:08:59.735Z,95655.88
2024-04-30T22:11:26.724Z,95651.75
2024-04-30T22:13:53.657Z,95651.56
2024-04-30T22:16:20.565Z,95663.34
2024-04-30T22:18:47.600Z,95659.09
2024-04-30T22:21:18.306Z,95650.69
2024-04-30T22:23:46.517Z,95651.41
2024-04-30T22:26:13.525Z,95648.00
2024-04-30T22:28:40.998Z,95647.91
2024-04-30T22:31:08.078Z,95645.75
2024-04-30T22:33:35.163Z,95638.28
2024-04-30T22:36:02.160Z,95642.19
2024-04-30T22:38:29.112Z,95632.94
2024-04-30T22:40:56.089Z,95629.53
2024-04-30T22:43:23.195Z,95639.13
2024-04-30T22:45:50.301Z,95639.97
2024-04-30T22:48:17.468Z,95633.88
2024-04-30T22:50:44.475Z,95638.50
2024-04-30T22:53:11.413Z,95636.38
2024-04-30T22:55:38.372Z,95643.72
2024-04-30T22:58:05.585Z,95643.78
2024-04-30T23:00:32.645Z,95647.34
2024-04-30T23:02:59.679Z,95642.78
2024-04-30T23:05:26.608Z,95641.06
2024-04-30T23:07:53.534Z,95645.72
2024-04-30T23:10:23.298Z,95632.34
2024-04-30T23:12:50.325Z,95626.72
2024-04-30T23:15:17.575Z,95625.16
2024-04-30T23:17:44.779Z,95622.19
2024-04-30T23:20:11.799Z,95633.84
2024-04-30T23:22:38.736Z,95640.50
2024-04-30T23:25:05.696Z,95638.94
2024-04-30T23:27:35.378Z,95640.22
2024-04-30T23:30:02.421Z,95638.44
2024-04-30T23:32:31.915Z,95633.84
2024-04-30T23:34:59.029Z,95630.81
2024-04-30T23:37:25.952Z,95632.22
2024-04-30T23:39:52.940Z,95632.13
2024-04-30T23:42:23.204Z,95629.63
2024-04-30T23:44:50.749Z,95615.66
2024-04-30T23:47:17.708Z,95615.09
2024-04-30T23:49:44.621Z,95609.53
2024-04-30T23:52:11.694Z,95625.34
2024-04-30T23:54:38.732Z,95616.00
2024-04-30T23:57:05.680Z,95611.19
2024-04-30T23:59:32.624Z,95608.72
